Decoded Metar for KSLK (SARANAC LAKE in NY, USA) (IATA:SLK) | Meteo·Mobile Aviation Weather
aviador You're here:

KSLK Decoded Metar

SARANAC LAKE in NY, USA
Report Time2019-02-16 16:51:00
UTC Time2019-02-16 17:08:21
Flight Rules mvfr MVFR
Wind240° at 11 Gusting to 16 kt
W.Decomp.*RWY 27: 10.6 kt HW 3 kt LCW
RWY 23: 10.0 kt HW 4.5 kt RCW
W.Rank240° ranks 2
Current wind is above 240° avg. (7.4)
Visibility9656 m
Phenomena:Light Snow
Clouds:Broken 023 Hf
Overcast 028 Hf
Expected CloudBase > 1,600 ft AGL from Temp-Dew spread
Ceiling2,300 ft
Temp-7°C (ISA -19)
Dew Point-11°C (73% RH)
AAT-14.1°C
QNH1008 hPa
Density Alt-469 ft
Elevation1,634 ft
Report Wrong Elevation
Raw Report
KSLK 161651Z AUTO 24011G16KT 6SM -SN BKN023 OVC028 M07/M11 A2977
RMK AO2 SNE03B31 SLP106 P0000 T10671106=

Extra information for KSLK:More info

Metar Taf Metar & Taf Last 4 Metars F.Rules Stats Wind Profile Meteogram Temp Stats Airport Information Weather charts Add Link Nearby VenuesMetar ALERT Operation Metar Decoded Social comments

AIRNAV info for KSLK